createdAt,value
2019-04-23T00:00:03.684Z,2.80
2019-04-23T00:02:54.992Z,3.23
2019-04-23T00:05:33.610Z,2.90
2019-04-23T00:12:49.533Z,2.80
2019-04-23T00:15:30.819Z,3.37
2019-04-23T00:20:14.385Z,2.43
2019-04-23T00:22:59.866Z,3.27
2019-04-23T00:28:26.694Z,3.13
2019-04-23T00:35:51.557Z,3.47
2019-04-23T00:41:02.857Z,2.80
2019-04-23T00:45:55.010Z,2.70
2019-04-23T00:48:23.647Z,3.00
2019-04-23T00:55:46.568Z,3.40
2019-04-23T00:58:25.045Z,3.00
2019-04-23T01:03:12.258Z,3.00
2019-04-23T01:08:11.776Z,2.93
2019-04-23T01:10:50.818Z,3.13
2019-04-23T01:13:19.348Z,3.17
2019-04-23T01:18:20.328Z,3.03
2019-04-23T01:22:54.905Z,2.97
2019-04-23T01:25:36.413Z,3.13
2019-04-23T01:28:28.244Z,2.73
2019-04-23T01:30:59.133Z,3.30
2019-04-23T01:33:29.711Z,2.60
2019-04-23T01:36:03.188Z,2.93
2019-04-23T01:38:27.954Z,2.80
2019-04-23T01:40:47.511Z,3.40
2019-04-23T01:43:33.635Z,3.40
2019-04-23T01:45:47.916Z,3.17
2019-04-23T01:48:12.779Z,2.77
2019-04-23T01:50:55.018Z,3.50
2019-04-23T01:53:23.293Z,3.13
2019-04-23T01:55:46.999Z,2.73
2019-04-23T01:58:31.837Z,3.10
2019-04-23T02:00:47.550Z,2.80
2019-04-23T02:03:15.255Z,3.03
2019-04-23T02:13:16.829Z,3.73
2019-04-23T02:15:44.066Z,3.03
2019-04-23T02:18:13.419Z,3.17
2019-04-23T02:20:42.935Z,3.50
2019-04-23T02:26:02.754Z,3.80
2019-04-23T02:28:38.830Z,3.30
2019-04-23T02:31:39.232Z,3.23
2019-04-23T02:39:53.670Z,3.43
2019-04-23T02:42:19.171Z,3.50
2019-04-23T02:44:35.065Z,3.40
2019-04-23T02:52:49.644Z,3.70
2019-04-23T02:55:21.496Z,3.50
2019-04-23T02:57:44.042Z,4.07
2019-04-23T03:05:31.966Z,3.50
2019-04-23T03:12:46.882Z,3.63
2019-04-23T03:15:50.115Z,3.40
2019-04-23T03:21:09.082Z,4.00
2019-04-23T03:28:35.818Z,3.70
2019-04-23T03:48:34.027Z,4.07
2019-04-23T03:50:43.480Z,3.10
2019-04-23T03:53:34.657Z,3.50
2019-04-23T03:55:54.504Z,3.80
2019-04-23T03:58:34.256Z,3.70
2019-04-23T04:06:00.154Z,4.17
2019-04-23T04:08:29.171Z,4.33
2019-04-23T04:13:22.590Z,3.70
2019-04-23T04:18:34.765Z,3.90
2019-04-23T04:23:24.193Z,4.47
2019-04-23T04:28:17.870Z,3.97
2019-04-23T04:33:29.816Z,4.13
2019-04-23T04:35:58.260Z,4.10
2019-04-23T04:38:38.518Z,4.07
2019-04-23T04:40:54.803Z,4.03
2019-04-23T04:43:31.750Z,4.00
2019-04-23T04:46:05.324Z,3.67
2019-04-23T04:48:16.419Z,4.27
2019-04-23T04:51:00.424Z,4.10
2019-04-23T04:53:33.412Z,4.60
2019-04-23T05:08:23.862Z,5.07
2019-04-23T05:10:52.018Z,4.63
2019-04-23T05:15:45.036Z,5.53
2019-04-23T05:18:28.947Z,4.70
2019-04-23T05:21:08.235Z,4.50
2019-04-23T05:23:25.400Z,5.10
2019-04-23T05:25:51.447Z,5.47
2019-04-23T05:28:24.974Z,5.37
2019-04-23T05:30:52.095Z,4.93
2019-04-23T05:33:21.911Z,5.50
2019-04-23T05:36:06.126Z,4.93
2019-04-23T05:38:29.107Z,5.50
2019-04-23T05:43:20.950Z,5.33
2019-04-23T05:50:50.630Z,5.50
2019-04-23T05:53:11.474Z,4.93
2019-04-23T05:55:46.002Z,5.27
2019-04-23T05:58:20.033Z,5.50
2019-04-23T06:00:45.756Z,6.33
2019-04-23T06:03:11.270Z,5.53
2019-04-23T06:08:11.801Z,5.40
2019-04-23T06:10:39.625Z,5.73
2019-04-23T06:13:04.994Z,5.03
2019-04-23T06:15:40.250Z,5.50
2019-04-23T06:18:08.039Z,5.60
2019-04-23T06:20:45.384Z,5.73
2019-04-23T06:23:20.917Z,5.63
2019-04-23T06:28:08.187Z,6.30
2019-04-23T06:30:40.853Z,5.73
2019-04-23T06:33:06.104Z,5.60
2019-04-23T06:35:54.951Z,5.30
2019-04-23T06:40:33.654Z,6.00
2019-04-23T06:43:24.094Z,5.37
2019-04-23T06:45:49.544Z,6.17
2019-04-23T06:48:21.841Z,5.93
2019-04-23T06:50:56.214Z,5.80
2019-04-23T06:53:18.463Z,5.63
2019-04-23T06:55:49.461Z,5.93
2019-04-23T06:58:25.368Z,5.40
2019-04-23T07:00:48.010Z,6.13
2019-04-23T07:03:23.268Z,6.30
2019-04-23T07:11:16.846Z,6.10
2019-04-23T07:13:46.538Z,6.30
2019-04-23T07:16:04.590Z,5.90
2019-04-23T07:18:39.636Z,5.73
2019-04-23T07:21:11.762Z,5.53
2019-04-23T07:23:37.611Z,6.10
2019-04-23T07:26:13.953Z,6.60
2019-04-23T07:28:36.337Z,6.60
2019-04-23T07:31:11.999Z,6.23
2019-04-23T07:33:35.066Z,5.80
2019-04-23T07:36:00.017Z,6.50
2019-04-23T07:38:50.514Z,6.07
2019-04-23T07:41:39.708Z,6.50
2019-04-23T07:44:24.909Z,7.00
2019-04-23T07:47:23.274Z,5.70
2019-04-23T07:49:37.904Z,6.50
2019-04-23T07:52:13.360Z,7.10
2019-04-23T07:54:38.792Z,7.40
2019-04-23T07:57:12.153Z,6.60
2019-04-23T07:59:33.329Z,6.73
2019-04-23T08:02:08.122Z,7.27
2019-04-23T08:04:35.236Z,7.23
2019-04-23T08:07:00.462Z,6.60
2019-04-23T08:09:37.666Z,6.70
2019-04-23T08:11:56.266Z,7.17
2019-04-23T08:14:40.872Z,6.80
2019-04-23T08:17:14.394Z,6.47
2019-04-23T08:19:49.915Z,7.07
2019-04-23T08:22:17.552Z,7.73
2019-04-23T08:24:50.534Z,7.70
2019-04-23T08:29:43.820Z,7.27
2019-04-23T08:34:54.553Z,6.87
2019-04-23T08:37:26.911Z,7.67
2019-04-23T08:39:47.145Z,7.80
2019-04-23T08:48:00.705Z,8.20
2019-04-23T08:50:09.211Z,7.50
2019-04-23T08:52:38.291Z,7.80
2019-04-23T08:55:08.675Z,8.03
2019-04-23T08:57:32.517Z,7.73
2019-04-23T09:00:04.328Z,7.87
2019-04-23T09:02:47.816Z,8.37
2019-04-23T09:05:08.837Z,8.47
2019-04-23T09:07:55.241Z,8.40
2019-04-23T09:10:07.705Z,8.77
2019-04-23T09:12:35.096Z,9.47
2019-04-23T09:15:03.903Z,8.93
2019-04-23T09:17:34.860Z,9.23
2019-04-23T09:25:06.559Z,9.33
2019-04-23T09:27:26.168Z,9.27
2019-04-23T09:32:24.829Z,8.20
2019-04-23T09:37:53.384Z,9.13
2019-04-23T09:41:11.578Z,8.90
2019-04-23T09:43:46.022Z,8.37
2019-04-23T09:46:30.062Z,8.53
2019-04-23T09:49:06.328Z,9.57
2019-04-23T09:51:32.839Z,10.07
2019-04-23T09:54:04.421Z,9.00
2019-04-23T09:56:32.819Z,9.17
2019-04-23T09:59:01.234Z,8.27
2019-04-23T10:03:44.653Z,9.27
2019-04-23T10:06:09.677Z,9.53
2019-04-23T10:08:36.524Z,10.20
2019-04-23T10:10:59.786Z,9.77
2019-04-23T10:13:27.263Z,10.13
2019-04-23T10:15:55.571Z,9.47
2019-04-23T10:18:24.465Z,8.87
2019-04-23T10:20:52.382Z,9.10
2019-04-23T10:23:21.283Z,8.97
2019-04-23T10:25:49.914Z,10.30
2019-04-23T10:28:27.408Z,9.80
2019-04-23T10:30:54.798Z,9.87
2019-04-23T10:33:23.427Z,9.43
2019-04-23T10:36:03.254Z,9.13
2019-04-23T10:38:28.626Z,9.80
2019-04-23T10:40:57.970Z,9.70
2019-04-23T10:43:25.498Z,9.63
2019-04-23T10:46:56.780Z,9.87
2019-04-23T10:50:05.131Z,10.07
2019-04-23T10:54:46.926Z,8.60
2019-04-23T11:00:09.853Z,9.90
2019-04-23T11:05:00.390Z,10.00
2019-04-23T11:10:25.814Z,10.47
2019-04-23T11:13:19.434Z,9.93
2019-04-23T11:18:02.952Z,9.93
2019-04-23T11:20:43.811Z,8.47
2019-04-23T11:23:00.798Z,9.17
2019-04-23T11:25:37.938Z,9.53
2019-04-23T11:28:13.561Z,9.27
2019-04-23T11:30:57.310Z,8.70
2019-04-23T11:33:30.057Z,8.27
2019-04-23T11:36:22.399Z,8.87
2019-04-23T11:38:48.649Z,8.90
2019-04-23T11:41:23.323Z,9.37
2019-04-23T11:43:29.235Z,10.00
2019-04-23T11:48:47.996Z,10.87
2019-04-23T11:51:26.755Z,9.33
2019-04-23T11:53:26.069Z,10.33
2019-04-23T11:55:55.733Z,9.90
2019-04-23T12:01:40.892Z,9.53
2019-04-23T12:04:07.129Z,9.83
2019-04-23T12:06:39.076Z,9.13
2019-04-23T12:09:40.128Z,9.87
2019-04-23T12:22:23.600Z,10.77
2019-04-23T12:25:04.327Z,9.83
2019-04-23T12:37:48.712Z,9.83
2019-04-23T12:40:32.413Z,10.23
2019-04-23T12:42:55.151Z,8.80
2019-04-23T12:45:30.221Z,8.40
2019-04-23T12:47:58.481Z,9.27
2019-04-23T12:52:47.200Z,9.73
2019-04-23T12:55:23.380Z,8.80
2019-04-23T13:00:20.839Z,8.07
2019-04-23T13:05:25.988Z,8.93
2019-04-23T13:10:22.570Z,8.67
2019-04-23T13:12:52.948Z,8.67
2019-04-23T13:15:15.856Z,7.97
2019-04-23T13:20:21.697Z,8.70
2019-04-23T13:22:49.469Z,8.70
2019-04-23T13:28:33.723Z,8.23
2019-04-23T13:33:28.260Z,8.17
2019-04-23T13:40:55.615Z,7.43
2019-04-23T13:43:34.748Z,7.77
2019-04-23T13:53:28.508Z,7.73
2019-04-23T13:55:42.881Z,7.30
2019-04-23T13:58:29.571Z,7.20
2019-04-23T14:00:52.375Z,7.53
2019-04-23T14:03:26.189Z,7.63
2019-04-23T14:06:16.204Z,7.13
2019-04-23T14:11:11.046Z,7.90
2019-04-23T14:16:11.644Z,7.97
2019-04-23T14:18:52.183Z,8.23
2019-04-23T14:21:14.115Z,8.37
2019-04-23T14:23:54.080Z,8.07
2019-04-23T14:28:36.952Z,8.17
2019-04-23T14:31:04.833Z,7.70
2019-04-23T14:36:00.886Z,7.63
2019-04-23T14:38:33.841Z,7.57
2019-04-23T14:43:34.892Z,8.27
2019-04-23T14:49:01.313Z,7.50
2019-04-23T14:53:52.073Z,7.47
2019-04-23T14:58:59.927Z,7.97
2019-04-23T15:01:33.591Z,6.97
2019-04-23T15:03:46.840Z,7.50
2019-04-23T15:08:59.209Z,7.90
2019-04-23T15:13:44.683Z,8.53
2019-04-23T15:16:17.387Z,8.33
2019-04-23T15:21:46.747Z,7.73
2019-04-23T15:27:29.576Z,6.40
2019-04-23T15:28:43.635Z,8.50
2019-04-23T15:31:34.881Z,6.40
2019-04-23T15:36:41.262Z,6.83
2019-04-23T15:41:32.110Z,7.37
2019-04-23T15:44:05.607Z,7.60
2019-04-23T15:53:59.223Z,6.53
2019-04-23T15:59:02.546Z,6.67
2019-04-23T16:01:29.063Z,5.90
2019-04-23T16:03:22.714Z,5.40
2019-04-23T16:05:51.024Z,5.50
2019-04-23T16:09:00.965Z,5.70
2019-04-23T16:11:33.666Z,6.20
2019-04-23T16:21:35.873Z,5.50
2019-04-23T16:24:02.660Z,5.20
2019-04-23T16:26:32.506Z,5.47
2019-04-23T16:29:16.271Z,5.87
2019-04-23T16:31:27.629Z,5.70
2019-04-23T16:34:22.491Z,5.77
2019-04-23T16:36:43.786Z,5.57
2019-04-23T16:39:10.704Z,5.67
2019-04-23T16:41:51.821Z,5.70
2019-04-23T16:44:46.705Z,5.80
2019-04-23T16:46:48.517Z,5.90
2019-04-23T16:49:20.036Z,5.80
2019-04-23T16:51:32.192Z,6.03
2019-04-23T16:54:19.602Z,5.83
2019-04-23T16:56:55.507Z,5.37
2019-04-23T16:59:15.508Z,6.13
2019-04-23T17:01:34.521Z,6.03
2019-04-23T17:04:15.786Z,5.47
2019-04-23T17:06:36.633Z,6.13
2019-04-23T17:09:07.013Z,5.50
2019-04-23T17:14:09.129Z,5.50
2019-04-23T17:16:38.116Z,5.40
2019-04-23T17:19:11.306Z,5.90
2019-04-23T17:24:15.093Z,5.53
2019-04-23T17:26:58.473Z,5.23
2019-04-23T17:29:21.744Z,5.17
2019-04-23T17:31:49.038Z,5.40
2019-04-23T17:34:30.411Z,6.07
2019-04-23T17:37:07.062Z,5.37
2019-04-23T17:39:57.892Z,5.77
2019-04-23T17:47:58.964Z,5.50
2019-04-23T17:55:21.719Z,5.67
2019-04-23T17:57:55.934Z,7.03
2019-04-23T18:00:27.169Z,6.53
2019-04-23T18:07:59.308Z,6.57
2019-04-23T18:10:24.968Z,7.27
2019-04-23T18:12:51.821Z,7.63
2019-04-23T18:20:45.980Z,6.10
2019-04-23T18:23:09.755Z,6.73
2019-04-23T18:25:43.300Z,5.90
2019-04-23T18:28:08.446Z,6.30
2019-04-23T18:31:05.879Z,5.83
2019-04-23T18:36:08.084Z,6.20
2019-04-23T18:38:39.972Z,5.90
2019-04-23T18:43:35.710Z,6.60
2019-04-23T18:46:08.966Z,7.03
2019-04-23T18:48:44.227Z,6.53
2019-04-23T18:53:45.613Z,6.87
2019-04-23T18:58:44.538Z,7.00
2019-04-23T19:01:05.405Z,6.87
2019-04-23T19:04:17.231Z,7.50
2019-04-23T19:06:40.013Z,7.60
2019-04-23T19:09:23.427Z,7.60
2019-04-23T19:12:14.646Z,8.50
2019-04-23T19:19:48.060Z,8.40
2019-04-23T19:22:30.605Z,8.77
2019-04-23T19:24:39.083Z,8.50
2019-04-23T19:27:19.531Z,8.23
2019-04-23T19:29:43.873Z,8.13
2019-04-23T19:32:00.486Z,7.07
2019-04-23T19:39:40.223Z,7.70
2019-04-23T19:42:03.620Z,8.20
2019-04-23T19:52:00.924Z,7.87
2019-04-23T19:59:40.974Z,7.37
2019-04-23T20:02:02.072Z,8.47
2019-04-23T20:04:29.106Z,7.77
2019-04-23T20:07:16.029Z,7.43
2019-04-23T20:12:00.434Z,6.30
2019-04-23T20:14:32.404Z,8.13
2019-04-23T20:17:21.411Z,7.20
2019-04-23T20:19:40.834Z,7.67
2019-04-23T20:27:09.256Z,7.60
2019-04-23T20:30:23.461Z,7.13
2019-04-23T20:31:39.361Z,7.97
2019-04-23T20:35:16.545Z,7.53
2019-04-23T20:40:18.651Z,7.50
2019-04-23T20:42:48.144Z,8.97
2019-04-23T20:45:27.381Z,8.87
2019-04-23T20:47:46.736Z,8.60
2019-04-23T20:50:00.986Z,8.23
2019-04-23T20:52:35.407Z,8.93
2019-04-23T20:55:08.615Z,7.37
2019-04-23T20:57:48.483Z,8.77
2019-04-23T21:00:34.028Z,8.50
2019-04-23T21:05:22.753Z,8.07
2019-04-23T21:10:37.237Z,8.73
2019-04-23T21:18:10.203Z,7.73
2019-04-23T21:23:06.622Z,8.43
2019-04-23T21:28:17.930Z,8.67
2019-04-23T21:31:11.455Z,9.20
2019-04-23T21:33:43.883Z,8.33
2019-04-23T21:36:38.888Z,8.47
2019-04-23T21:39:38.577Z,8.03
2019-04-23T21:42:09.669Z,8.30
2019-04-23T21:45:04.804Z,8.73
2019-04-23T21:50:11.356Z,7.80
2019-04-23T21:52:36.114Z,8.90
2019-04-23T21:55:02.380Z,8.00
2019-04-23T21:57:35.401Z,7.67
2019-04-23T21:59:59.169Z,8.07
2019-04-23T22:02:27.614Z,7.60
2019-04-23T22:05:16.844Z,8.00
2019-04-23T22:07:42.022Z,8.33
2019-04-23T22:09:57.437Z,8.60
2019-04-23T22:12:23.065Z,8.10
2019-04-23T22:14:50.671Z,7.70
2019-04-23T22:17:25.953Z,8.37
2019-04-23T22:20:03.105Z,8.43
2019-04-23T22:22:28.577Z,8.43
2019-04-23T22:24:54.586Z,7.93
2019-04-23T22:27:16.745Z,9.20
2019-04-23T22:32:23.670Z,8.23
2019-04-23T22:34:55.997Z,7.80
2019-04-23T22:37:14.861Z,8.13
2019-04-23T22:39:47.001Z,8.43
2019-04-23T22:45:07.529Z,8.23
2019-04-23T22:49:50.204Z,8.80
2019-04-23T22:52:26.538Z,8.63
2019-04-23T22:54:49.434Z,8.57
2019-04-23T22:57:11.588Z,8.30
2019-04-23T23:00:04.411Z,8.60
2019-04-23T23:02:54.561Z,9.73
2019-04-23T23:08:10.728Z,8.90
2019-04-23T23:10:27.973Z,9.73
2019-04-23T23:13:04.094Z,8.87
2019-04-23T23:15:36.086Z,8.93
2019-04-23T23:18:09.999Z,8.70
2019-04-23T23:23:06.367Z,8.40
2019-04-23T23:28:02.247Z,8.63
2019-04-23T23:32:55.607Z,8.13
2019-04-23T23:37:56.575Z,9.17
2019-04-23T23:40:53.702Z,7.77
2019-04-23T23:45:53.122Z,7.43
2019-04-23T23:48:08.067Z,8.63
2019-04-23T23:50:44.964Z,8.80
2019-04-23T23:55:46.869Z,9.10
